LEPP/PNA METAR and TAF weather

Enter ICAO airport designator
Station Type Date Time Source
LEPP METAR 2021/08/04 18:00 UTC NOAA

LEPP 041800Z 35016G26KT 320V020 9999 SCT030 21/14 Q1017


Station Type Date Time Source
LEPP Decoded METAR 2021/08/04 18:00 UTC NOAA

Pamplona / Noain, Spain (LEPP) 42-46N 001-38W 453M
Aug 04, 2021 - 02:00 PM EDT / 2021.08.04 1800 UTC
Wind: from the N (350 degrees) at 18 MPH (16 KT) gusting to 30 MPH (26 KT) (direction variable):0
Visibility: greater than 7 mile(s):0
Sky conditions: partly cloudy
Temperature: 69 F (21 C)
Dew Point: 57 F (14 C)
Relative Humidity: 64%
Pressure (altimeter): 30.03 in. Hg (1017 hPa)
ob: LEPP 041800Z 35016G26KT 320V020 9999 SCT030 21/14 Q1017
cycle: 18

Station Type Date Time Source
LEPP TAF 2021/08/04 15:27 UTC NOAA

TAF LEPP 041400Z 0415/0515 35012KT 9999 FEW020 SCT035 TX30/0515Z TN12/0506Z PROB30
TEMPO 0415/0420 01015G25KT
BECMG 0421/0423 VRB05KT PROB30
TEMPO 0503/0506 4000 BR BKN010

Example: see airport list